Time;durP1;ratioP1;P1;durP2;ratioP2;P2;SDS_P1;SDS_P2;PMS_P1;PMS_P2;Temp;Humidity;BMP_temperature;BMP_pressure;BME280_temperature;BME280_humidity;BME280_pressure;Samples;Min_cycle;Max_cycle;Signal;HPM_P1;HPM_P2
2023/06/10 00:01:30;;;;;;;;;;;;;;;;;;5051157;28;20011;-78
2023/06/10 00:03:55;;;;;;;;;;;;;;;;;;5050054;28;20345;-78
2023/06/10 00:06:24;;;;;;;;;;;;;;;;;;5066608;28;19945;-78
2023/06/10 00:08:49;;;;;;;;;;;;;;;;;;5063715;28;19970;-78
2023/06/10 00:11:14;;;;;;;;;;;;;;;;;;5050126;28;19916;-78
2023/06/10 00:13:40;;;;;;;;;;;;;;;;;;5058504;28;19995;-78
2023/06/10 00:16:05;;;;;;;;;;;;;;;;;;5045316;28;20007;-78
2023/06/10 00:18:31;;;;;;;;;;;;;;;;;;5048858;28;20319;-78
2023/06/10 00:21:02;;;;;;;;;;;;;;;;;;5049624;28;19919;-78
2023/06/10 00:23:29;;;;;;;;;;;;;;;;;;5049545;28;19917;-77
2023/06/10 00:25:54;;;;;;;;;;;;;;;;;;5065019;28;20290;-76
2023/06/10 00:28:19;;;;;;;;;;;;;;;;;;5077550;28;19912;-77
2023/06/10 00:30:45;;;;;;;;;;;;;;;;;;5053404;28;19998;-76
2023/06/10 00:33:10;;;;;;;;;;;;;;;;;;5044667;28;20287;-77
2023/06/10 00:35:35;;;;;;;;;;;;;;;;;;5069888;28;20241;-77
2023/06/10 00:38:01;;;;;;;;;;;;;;;;;;5054926;28;19912;-76
2023/06/10 00:40:26;;;;;;;;;;;;;;;;;;5052822;28;19916;-78
2023/06/10 00:42:51;;;;;;;;;;;;;;;;;;5053392;28;20304;-79
2023/06/10 00:45:17;;;;;;;;;;;;;;;;;;5063375;28;19934;-78
2023/06/10 00:47:42;;;;;;;;;;;;;;;;;;5056838;28;19924;-78
2023/06/10 00:50:07;;;;;;;;;;;;;;;;;;5069953;28;20004;-78
2023/06/10 00:52:33;;;;;;;;;;;;;;;;;;5053836;28;19917;-78
2023/06/10 00:54:59;;;;;;;;;;;;;;;;;;5054410;28;19915;-78
2023/06/10 00:57:25;;;;;;;;;;;;;;;;;;5052802;28;19917;-78
2023/06/10 00:59:50;;;;;;;;;;;;;;;;;;5063811;28;19909;-78
2023/06/10 01:02:16;;;;;;;;;;;;;;;;;;5053484;28;20011;-78
2023/06/10 01:04:41;;;;;;;;;;;;;;;;;;5053882;28;19912;-78
2023/06/10 01:07:06;;;;;;;;;;;;;;;;;;5052295;28;20386;-78
2023/06/10 01:09:31;;;;;;;;;;;;;;;;;;5069850;28;19908;-78
2023/06/10 01:11:57;;;;;;;;;;;;;;;;;;5053701;28;20769;-78
2023/06/10 01:14:22;;;;;;;;;;;;;;;;;;5035891;28;19909;-78
2023/06/10 01:16:48;;;;;;;;;;;;;;;;;;5052967;28;19913;-78
2023/06/10 01:19:14;;;;;;;;;;;;;;;;;;5052800;28;20359;-78
2023/06/10 01:21:40;;;;;;;;;;;;;;;;;;5053556;28;19920;-78
2023/06/10 01:24:08;;;;;;;;;;;;;;;;;;5053620;28;20371;-78
2023/06/10 01:26:33;;;;;;;;;;;;;;;;;;5053951;28;19936;-78
2023/06/10 01:28:58;;;;;;;;;;;;;;;;;;5054061;28;19916;-78
2023/06/10 01:31:24;;;;;;;;;;;;;;;;;;5051841;28;19912;-78
2023/06/10 01:33:50;;;;;;;;;;;;;;;;;;5053815;28;20308;-78
2023/06/10 01:36:16;;;;;;;;;;;;;;;;;;5053181;28;19935;-78
2023/06/10 01:38:41;;;;;;;;;;;;;;;;;;5052999;28;20355;-78
2023/06/10 01:41:06;;;;;;;;;;;;;;;;;;5052910;28;19956;-78
2023/06/10 01:43:32;;;;;;;;;;;;;;;;;;5034289;28;20285;-78
2023/06/10 01:45:58;;;;;;;;;;;;;;;;;;5054042;28;19920;-79
2023/06/10 01:48:23;;;;;;;;;;;;;;;;;;5054162;28;19909;-78
2023/06/10 01:50:48;;;;;;;;;;;;;;;;;;5053402;28;19912;-78
2023/06/10 01:53:14;;;;;;;;;;;;;;;;;;5035651;28;19908;-79
2023/06/10 01:55:39;;;;;;;;;;;;;;;;;;5068232;28;19913;-78
2023/06/10 01:58:05;;;;;;;;;;;;;;;;;;5052911;28;20050;-78
2023/06/10 02:00:30;;;;;;;;;;;;;;;;;;5051566;28;20011;-78
2023/06/10 02:02:55;;;;;;;;;;;;;;;;;;5052870;28;19966;-78
2023/06/10 02:05:21;;;;;;;;;;;;;;;;;;5051440;28;19943;-78
2023/06/10 02:07:47;;;;;;;;;;;;;;;;;;5068457;28;19960;-78
2023/06/10 02:10:13;;;;;;;;;;;;;;;;;;5050993;28;19952;-79
2023/06/10 02:12:38;;;;;;;;;;;;;;;;;;5068187;28;20371;-78
2023/06/10 02:15:03;;;;;;;;;;;;;;;;;;5053142;28;19917;-78
2023/06/10 02:17:28;;;;;;;;;;;;;;;;;;5061094;28;20403;-78
2023/06/10 02:19:54;;;;;;;;;;;;;;;;;;5044274;28;19920;-78
2023/06/10 02:22:20;;;;;;;;;;;;;;;;;;5067859;28;19909;-78
2023/06/10 02:24:45;;;;;;;;;;;;;;;;;;5067919;28;19924;-77
2023/06/10 02:27:11;;;;;;;;;;;;;;;;;;5034327;28;19991;-78
2023/06/10 02:29:36;;;;;;;;;;;;;;;;;;5052101;28;20291;-79
2023/06/10 02:32:01;;;;;;;;;;;;;;;;;;5063966;28;19909;-78
2023/06/10 02:34:27;;;;;;;;;;;;;;;;;;5045775;28;19913;-78
2023/06/10 02:36:52;;;;;;;;;;;;;;;;;;5067293;28;20781;-78
2023/06/10 02:39:20;;;;;;;;;;;;;;;;;;5067150;28;19912;-78
2023/06/10 02:41:45;;;;;;;;;;;;;;;;;;5070649;28;20445;-78
2023/06/10 02:44:11;;;;;;;;;;;;;;;;;;5056500;28;19917;-79
2023/06/10 02:46:36;;;;;;;;;;;;;;;;;;5034103;28;19909;-78
2023/06/10 02:49:03;;;;;;;;;;;;;;;;;;5050527;28;19913;-78
2023/06/10 02:51:28;;;;;;;;;;;;;;;;;;5067006;28;20517;-78
2023/06/10 02:53:58;;;;;;;;;;;;;;;;;;5050548;28;20015;-79
2023/06/10 02:56:25;;;;;;;;;;;;;;;;;;5067702;28;19940;-78
2023/06/10 02:58:51;;;;;;;;;;;;;;;;;;5050455;28;19912;-78
2023/06/10 03:01:18;;;;;;;;;;;;;;;;;;5067633;28;20329;-79
2023/06/10 03:03:56;;;;;;;;;;;;;;;;;;5050720;28;19923;-78
2023/06/10 03:06:24;;;;;;;;;;;;;;;;;;5051011;28;19974;-78
2023/06/10 03:08:49;;;;;;;;;;;;;;;;;;5050215;28;19913;-79
2023/06/10 03:11:19;;;;;;;;;;;;;;;;;;5051748;28;19920;-75
2023/06/10 03:13:45;;;;;;;;;;;;;;;;;;5050574;28;19916;-78
2023/06/10 03:16:14;;;;;;;;;;;;;;;;;;5050922;28;20042;-78
2023/06/10 03:18:40;;;;;;;;;;;;;;;;;;5049287;28;21307;-78
2023/06/10 03:21:05;;;;;;;;;;;;;;;;;;5050513;28;20264;-77
2023/06/10 03:23:30;;;;;;;;;;;;;;;;;;5050754;28;19913;-78
2023/06/10 03:25:56;;;;;;;;;;;;;;;;;;5033720;28;20382;-78
2023/06/10 03:28:22;;;;;;;;;;;;;;;;;;5030902;28;19915;-78
2023/06/10 03:30:48;;;;;;;;;;;;;;;;;;5049846;28;19912;-78
2023/06/10 03:33:13;;;;;;;;;;;;;;;;;;5050571;28;19916;-78
2023/06/10 03:35:40;;;;;;;;;;;;;;;;;;5056783;28;19913;-79
2023/06/10 03:38:05;;;;;;;;;;;;;;;;;;5052273;28;19915;-78
2023/06/10 03:40:31;;;;;;;;;;;;;;;;;;5064178;28;19917;-78
2023/06/10 03:42:57;;;;;;;;;;;;;;;;;;5040793;28;20011;-78
2023/06/10 03:45:23;;;;;;;;;;;;;;;;;;5066920;28;20012;-79
2023/06/10 03:47:48;;;;;;;;;;;;;;;;;;5050254;28;19908;-78
2023/06/10 03:50:16;;;;;;;;;;;;;;;;;;5066584;28;19963;-78
2023/06/10 03:52:44;;;;;;;;;;;;;;;;;;5050232;28;19909;-79
2023/06/10 03:55:11;;;;;;;;;;;;;;;;;;5067355;28;19916;-79
2023/06/10 03:57:36;;;;;;;;;;;;;;;;;;5033592;28;19909;-79
2023/06/10 04:00:08;;;;;;;;;;;;;;;;;;5067048;28;20386;-79
2023/06/10 04:02:45;;;;;;;;;;;;;;;;;;5052005;28;20360;-77
2023/06/10 04:05:16;;;;;;;;;;;;;;;;;;5067346;28;19912;-78
2023/06/10 04:07:42;;;;;;;;;;;;;;;;;;5055298;28;19936;-78
2023/06/10 04:10:07;;;;;;;;;;;;;;;;;;5055204;28;19919;-78
2023/06/10 04:12:33;;;;;;;;;;;;;;;;;;5070686;28;19908;-78
2023/06/10 04:14:59;;;;;;;;;;;;;;;;;;5070426;28;19935;-78
2023/06/10 04:17:24;;;;;;;;;;;;;;;;;;5052793;28;19913;-78
2023/06/10 04:19:50;;;;;;;;;;;;;;;;;;5046769;28;19917;-78
2023/06/10 04:22:16;;;;;;;;;;;;;;;;;;5053471;28;19915;-78
2023/06/10 04:24:42;;;;;;;;;;;;;;;;;;5055112;28;20275;-77
2023/06/10 04:27:08;;;;;;;;;;;;;;;;;;5059242;28;20375;-77
2023/06/10 04:29:34;;;;;;;;;;;;;;;;;;5060467;28;19919;-79
2023/06/10 04:32:00;;;;;;;;;;;;;;;;;;5053084;28;20375;-76
2023/06/10 04:34:25;;;;;;;;;;;;;;;;;;5037298;28;20402;-79
2023/06/10 04:36:51;;;;;;;;;;;;;;;;;;5037056;28;20003;-77
2023/06/10 04:39:17;;;;;;;;;;;;;;;;;;5037186;28;19970;-78
2023/06/10 04:41:42;;;;;;;;;;;;;;;;;;5053287;28;19916;-78
2023/06/10 04:44:08;;;;;;;;;;;;;;;;;;5053385;28;20283;-78
2023/06/10 04:46:34;;;;;;;;;;;;;;;;;;5052949;28;20395;-78
2023/06/10 04:48:59;;;;;;;;;;;;;;;;;;5053594;28;20011;-78
2023/06/10 04:51:24;;;;;;;;;;;;;;;;;;5053155;28;20851;-78
2023/06/10 04:53:49;;;;;;;;;;;;;;;;;;5053262;28;20046;-78
2023/06/10 04:56:16;;;;;;;;;;;;;;;;;;5053949;28;19915;-78
2023/06/10 04:58:41;;;;;;;;;;;;;;;;;;5054537;28;19960;-78
2023/06/10 05:01:06;;;;;;;;;;;;;;;;;;5053720;28;19963;-78
2023/06/10 05:03:32;;;;;;;;;;;;;;;;;;5048344;28;19916;-78
2023/06/10 05:05:57;;;;;;;;;;;;;;;;;;5046312;28;20303;-79
2023/06/10 05:08:22;;;;;;;;;;;;;;;;;;5042159;28;19963;-78
2023/06/10 05:10:47;;;;;;;;;;;;;;;;;;5046928;28;19916;-79
2023/06/10 05:13:13;;;;;;;;;;;;;;;;;;5044879;28;19958;-77
2023/06/10 05:15:38;;;;;;;;;;;;;;;;;;5062063;28;19916;-77
2023/06/10 05:18:03;;;;;;;;;;;;;;;;;;5047548;28;19925;-76
2023/06/10 05:20:29;;;;;;;;;;;;;;;;;;5051997;28;19908;-77
2023/06/10 05:22:54;;;;;;;;;;;;;;;;;;5053997;28;19916;-78
2023/06/10 05:25:19;;;;;;;;;;;;;;;;;;5052791;28;19995;-79
2023/06/10 05:27:45;;;;;;;;;;;;;;;;;;5052968;28;19913;-78
2023/06/10 05:30:10;;;;;;;;;;;;;;;;;;5051847;28;20015;-76
2023/06/10 05:32:35;;;;;;;;;;;;;;;;;;5051611;28;20350;-77
2023/06/10 05:35:01;;;;;;;;;;;;;;;;;;5049769;28;19968;-77
2023/06/10 05:37:26;;;;;;;;;;;;;;;;;;5067930;28;19912;-77
2023/06/10 05:39:52;;;;;;;;;;;;;;;;;;5045067;28;20292;-77
2023/06/10 05:42:17;;;;;;;;;;;;;;;;;;5052138;28;20387;-76
2023/06/10 05:44:42;;;;;;;;;;;;;;;;;;5052280;28;20015;-75
2023/06/10 05:47:08;;;;;;;;;;;;;;;;;;5053101;28;19916;-78
2023/06/10 05:49:33;;;;;;;;;;;;;;;;;;5053588;28;19919;-76
2023/06/10 05:51:59;;;;;;;;;;;;;;;;;;5053607;28;19921;-78
2023/06/10 05:54:24;;;;;;;;;;;;;;;;;;5053048;28;20027;-78
2023/06/10 05:56:49;;;;;;;;;;;;;;;;;;5051425;28;20413;-77
2023/06/10 05:59:14;;;;;;;;;;;;;;;;;;5053291;28;19919;-77
2023/06/10 06:01:40;;;;;;;;;;;;;;;;;;5052354;28;20008;-79
2023/06/10 06:04:05;;;;;;;;;;;;;;;;;;5053160;28;20430;-76
2023/06/10 06:06:31;;;;;;;;;;;;;;;;;;5051732;28;20291;-79
2023/06/10 06:08:56;;;;;;;;;;;;;;;;;;5053557;28;19908;-80
2023/06/10 06:11:21;;;;;;;;;;;;;;;;;;5052930;28;19955;-82
2023/06/10 06:13:48;;;;;;;;;;;;;;;;;;5054547;28;19908;-81
2023/06/10 06:16:13;;;;;;;;;;;;;;;;;;5052953;28;20334;-81
2023/06/10 06:18:38;;;;;;;;;;;;;;;;;;5050887;28;19924;-81
2023/06/10 06:21:04;;;;;;;;;;;;;;;;;;5052854;28;19955;-80
2023/06/10 06:23:30;;;;;;;;;;;;;;;;;;5066136;28;19978;-82
2023/06/10 06:25:55;;;;;;;;;;;;;;;;;;5053516;28;19916;-81
2023/06/10 06:28:22;;;;;;;;;;;;;;;;;;5065906;28;19931;-81
2023/06/10 06:30:47;;;;;;;;;;;;;;;;;;5053492;28;19913;-81
2023/06/10 06:33:12;;;;;;;;;;;;;;;;;;5051889;28;19924;-81
2023/06/10 06:35:38;;;;;;;;;;;;;;;;;;5048834;28;20322;-80
2023/06/10 06:38:04;;;;;;;;;;;;;;;;;;5034221;28;20315;-79
2023/06/10 06:40:29;;;;;;;;;;;;;;;;;;5064425;28;19912;-81
2023/06/10 06:42:54;;;;;;;;;;;;;;;;;;5051872;28;20459;-78
2023/06/10 06:45:38;;;;;;;;;;;;;;;;;;5053192;28;20007;-78
2023/06/10 06:48:04;;;;;;;;;;;;;;;;;;5051042;28;19944;-78
2023/06/10 06:50:29;;;;;;;;;;;;;;;;;;5068593;28;19962;-78
2023/06/10 06:52:55;;;;;;;;;;;;;;;;;;5052726;28;19922;-78
2023/06/10 06:55:34;;;;;;;;;;;;;;;;;;5052821;28;19999;-78
2023/06/10 06:58:02;;;;;;;;;;;;;;;;;;5052823;28;19936;-77
2023/06/10 07:00:27;;;;;;;;;;;;;;;;;;5052726;28;19995;-78
2023/06/10 07:02:53;;;;;;;;;;;;;;;;;;5052682;28;20050;-77
2023/06/10 07:05:18;;;;;;;;;;;;;;;;;;5052746;28;19935;-77
2023/06/10 07:07:44;;;;;;;;;;;;;;;;;;5047911;28;19919;-77
2023/06/10 07:10:09;;;;;;;;;;;;;;;;;;5047120;28;20356;-77
2023/06/10 07:12:34;;;;;;;;;;;;;;;;;;5052179;28;19917;-77
2023/06/10 07:15:00;;;;;;;;;;;;;;;;;;5052039;28;19971;-77
2023/06/10 07:17:26;;;;;;;;;;;;;;;;;;5051554;28;19928;-75
2023/06/10 07:19:52;;;;;;;;;;;;;;;;;;5051093;28;19912;-77
2023/06/10 07:22:17;;;;;;;;;;;;;;;;;;5067945;28;19912;-77
2023/06/10 07:24:42;;;;;;;;;;;;;;;;;;5052459;28;19913;-77
2023/06/10 07:27:08;;;;;;;;;;;;;;;;;;5052812;28;20015;-75
2023/06/10 07:29:33;;;;;;;;;;;;;;;;;;5059957;28;19909;-83
2023/06/10 07:31:58;;;;;;;;;;;;;;;;;;5062608;28;19940;-83
2023/06/10 07:34:23;;;;;;;;;;;;;;;;;;5060558;28;19909;-82
2023/06/10 07:36:49;;;;;;;;;;;;;;;;;;5052878;28;19935;-81
2023/06/10 07:39:14;;;;;;;;;;;;;;;;;;5041419;28;19920;-81
2023/06/10 07:41:40;;;;;;;;;;;;;;;;;;5045852;28;19919;-81
2023/06/10 07:44:05;;;;;;;;;;;;;;;;;;5044851;28;20235;-82
2023/06/10 07:46:30;;;;;;;;;;;;;;;;;;5053336;28;20019;-82
2023/06/10 07:48:56;;;;;;;;;;;;;;;;;;5055232;28;20291;-82
2023/06/10 07:51:21;;;;;;;;;;;;;;;;;;5053071;28;19925;-81
2023/06/10 07:53:46;;;;;;;;;;;;;;;;;;5053794;28;19909;-83
2023/06/10 07:56:12;;;;;;;;;;;;;;;;;;5053601;28;19912;-83
2023/06/10 07:58:37;;;;;;;;;;;;;;;;;;5055140;28;19909;-82
2023/06/10 08:01:02;;;;;;;;;;;;;;;;;;5056965;28;19913;-82
2023/06/10 08:03:28;;;;;;;;;;;;;;;;;;5052589;28;20344;-82
2023/06/10 08:05:53;;;;;;;;;;;;;;;;;;5050498;28;19924;-81
2023/06/10 08:08:18;;;;;;;;;;;;;;;;;;5051911;28;20364;-82
2023/06/10 08:10:44;;;;;;;;;;;;;;;;;;5050949;28;19912;-82
2023/06/10 08:13:09;;;;;;;;;;;;;;;;;;5052964;28;19908;-82
2023/06/10 08:15:34;;;;;;;;;;;;;;;;;;5051539;28;19924;-81
2023/06/10 08:18:00;;;;;;;;;;;;;;;;;;5049830;28;19924;-82
2023/06/10 08:20:25;;;;;;;;;;;;;;;;;;5052461;28;20418;-82
2023/06/10 08:22:50;;;;;;;;;;;;;;;;;;5052360;28;19917;-82
2023/06/10 08:25:16;;;;;;;;;;;;;;;;;;5051373;28;19920;-80
2023/06/10 08:27:41;;;;;;;;;;;;;;;;;;5052534;28;20490;-81
2023/06/10 08:30:06;;;;;;;;;;;;;;;;;;5049788;28;19912;-81
2023/06/10 08:32:31;;;;;;;;;;;;;;;;;;5052674;28;19944;-81
2023/06/10 08:34:57;;;;;;;;;;;;;;;;;;5049220;28;20409;-81
2023/06/10 08:37:22;;;;;;;;;;;;;;;;;;5048464;28;19959;-81
2023/06/10 08:39:47;;;;;;;;;;;;;;;;;;5051077;28;20011;-81
2023/06/10 08:42:13;;;;;;;;;;;;;;;;;;5059169;28;19915;-81
2023/06/10 08:44:38;;;;;;;;;;;;;;;;;;5046400;28;20402;-82
2023/06/10 08:47:03;;;;;;;;;;;;;;;;;;5049364;28;19958;-81
2023/06/10 08:49:29;;;;;;;;;;;;;;;;;;5050720;28;19948;-81
2023/06/10 08:51:54;;;;;;;;;;;;;;;;;;5061237;28;19912;-81
2023/06/10 08:54:20;;;;;;;;;;;;;;;;;;5046916;28;19912;-81
2023/06/10 08:56:45;;;;;;;;;;;;;;;;;;5043465;28;19916;-82
2023/06/10 08:59:10;;;;;;;;;;;;;;;;;;5044364;28;19936;-82
2023/06/10 09:01:36;;;;;;;;;;;;;;;;;;5057568;28;20367;-82
2023/06/10 09:04:01;;;;;;;;;;;;;;;;;;5048097;28;19923;-81
2023/06/10 09:06:26;;;;;;;;;;;;;;;;;;5055402;28;19940;-81
2023/06/10 09:08:52;;;;;;;;;;;;;;;;;;5053351;28;19923;-81
2023/06/10 09:11:17;;;;;;;;;;;;;;;;;;5053025;28;20395;-83
2023/06/10 09:13:42;;;;;;;;;;;;;;;;;;5052603;28;19948;-83
2023/06/10 09:16:08;;;;;;;;;;;;;;;;;;5052275;28;19908;-81
2023/06/10 09:18:34;;;;;;;;;;;;;;;;;;5051765;28;20425;-81
2023/06/10 09:20:59;;;;;;;;;;;;;;;;;;5053865;28;19913;-81
2023/06/10 09:23:25;;;;;;;;;;;;;;;;;;5044582;28;20315;-81
2023/06/10 09:25:50;;;;;;;;;;;;;;;;;;5055594;28;19909;-81
2023/06/10 09:28:15;;;;;;;;;;;;;;;;;;5054820;28;19959;-81
2023/06/10 09:30:41;;;;;;;;;;;;;;;;;;5054790;28;19948;-81
2023/06/10 09:33:31;;;;;;;;;;;;;;;;;;5055253;28;19939;-82
2023/06/10 09:36:00;;;;;;;;;;;;;;;;;;5053642;28;19913;-82
2023/06/10 09:38:26;;;;;;;;;;;;;;;;;;5054898;28;19944;-82
2023/06/10 09:40:51;;;;;;;;;;;;;;;;;;5054965;28;19959;-81
2023/06/10 09:43:16;;;;;;;;;;;;;;;;;;5054202;28;19919;-81
2023/06/10 09:45:43;;;;;;;;;;;;;;;;;;5054487;28;19913;-81
2023/06/10 09:48:08;;;;;;;;;;;;;;;;;;5055775;28;20367;-83
2023/06/10 09:50:34;;;;;;;;;;;;;;;;;;5048936;28;19924;-82
2023/06/10 09:53:02;;;;;;;;;;;;;;;;;;5067696;28;20346;-76
2023/06/10 09:55:27;;;;;;;;;;;;;;;;;;5043812;28;20007;-77
2023/06/10 09:57:52;;;;;;;;;;;;;;;;;;5048448;28;20417;-78
2023/06/10 10:00:18;;;;;;;;;;;;;;;;;;5053711;28;19951;-77
2023/06/10 10:02:43;;;;;;;;;;;;;;;;;;5054538;28;19915;-76
2023/06/10 10:05:08;;;;;;;;;;;;;;;;;;5052829;28;19966;-77
2023/06/10 10:07:34;;;;;;;;;;;;;;;;;;5051838;28;20417;-77
2023/06/10 10:09:59;;;;;;;;;;;;;;;;;;5054411;28;19912;-76
2023/06/10 10:12:24;;;;;;;;;;;;;;;;;;5054428;28;19948;-77
2023/06/10 10:14:50;;;;;;;;;;;;;;;;;;5054555;28;19913;-77
2023/06/10 10:17:15;;;;;;;;;;;;;;;;;;5053702;28;19959;-76
2023/06/10 10:19:40;;;;;;;;;;;;;;;;;;5069328;28;19928;-76
2023/06/10 10:22:06;;;;;;;;;;;;;;;;;;5051556;28;20003;-75
2023/06/10 10:24:31;;;;;;;;;;;;;;;;;;5041364;28;19916;-76
2023/06/10 10:26:56;;;;;;;;;;;;;;;;;;5052866;28;19951;-76
2023/06/10 10:29:22;;;;;;;;;;;;;;;;;;5053529;28;20006;-76
2023/06/10 10:31:47;;;;;;;;;;;;;;;;;;5051684;28;19931;-76
2023/06/10 10:34:12;;;;;;;;;;;;;;;;;;5052816;28;19920;-76
2023/06/10 10:36:38;;;;;;;;;;;;;;;;;;5067828;28;19931;-76
2023/06/10 10:39:03;;;;;;;;;;;;;;;;;;5053107;28;19958;-76
2023/06/10 10:41:28;;;;;;;;;;;;;;;;;;5067148;28;20026;-75
2023/06/10 10:43:54;;;;;;;;;;;;;;;;;;5052864;28;19917;-75
2023/06/10 10:46:19;;;;;;;;;;;;;;;;;;5053467;28;20003;-76
2023/06/10 10:48:44;;;;;;;;;;;;;;;;;;5042635;28;19959;-76
2023/06/10 10:51:10;;;;;;;;;;;;;;;;;;5050249;28;20347;-76
2023/06/10 10:53:35;;;;;;;;;;;;;;;;;;5046721;28;19917;-76
2023/06/10 10:56:00;;;;;;;;;;;;;;;;;;5042162;28;19952;-75
2023/06/10 10:58:26;;;;;;;;;;;;;;;;;;5046268;28;19913;-76
2023/06/10 11:00:51;;;;;;;;;;;;;;;;;;5055456;28;19916;-75
2023/06/10 11:03:17;;;;;;;;;;;;;;;;;;5055890;28;19966;-75
2023/06/10 11:05:44;;;;;;;;;;;;;;;;;;5057871;28;20295;-76
2023/06/10 11:08:09;;;;;;;;;;;;;;;;;;5052397;28;20003;-75
2023/06/10 11:10:35;;;;;;;;;;;;;;;;;;5044343;28;19952;-76
2023/06/10 11:13:00;;;;;;;;;;;;;;;;;;5051494;28;20252;-75
2023/06/10 11:15:25;;;;;;;;;;;;;;;;;;5047074;28;19954;-75
2023/06/10 11:17:51;;;;;;;;;;;;;;;;;;5054136;28;20010;-75
2023/06/10 11:20:16;;;;;;;;;;;;;;;;;;5051569;28;19922;-76
2023/06/10 11:22:41;;;;;;;;;;;;;;;;;;5052482;28;19913;-77
2023/06/10 11:25:07;;;;;;;;;;;;;;;;;;5050510;28;19948;-75
2023/06/10 11:27:32;;;;;;;;;;;;;;;;;;5048962;28;20003;-75
2023/06/10 11:29:57;;;;;;;;;;;;;;;;;;5049655;28;20310;-76
2023/06/10 11:32:23;;;;;;;;;;;;;;;;;;5052405;28;19912;-76
2023/06/10 11:34:48;;;;;;;;;;;;;;;;;;5052226;28;19920;-76
2023/06/10 11:37:13;;;;;;;;;;;;;;;;;;5052092;28;19960;-75
2023/06/10 11:39:38;;;;;;;;;;;;;;;;;;5051593;28;19912;-77
2023/06/10 11:42:04;;;;;;;;;;;;;;;;;;5052250;28;20395;-75
2023/06/10 11:44:32;;;;;;;;;;;;;;;;;;5050815;28;19913;-77
2023/06/10 11:46:57;;;;;;;;;;;;;;;;;;5043050;28;20318;-75
2023/06/10 11:49:22;;;;;;;;;;;;;;;;;;5052038;28;19962;-75
2023/06/10 11:51:51;;;;;;;;;;;;;;;;;;5052121;28;19919;-75
2023/06/10 11:54:17;;;;;;;;;;;;;;;;;;5051826;28;20435;-75
2023/06/10 11:56:42;;;;;;;;;;;;;;;;;;5034548;28;20008;-75
2023/06/10 11:59:07;;;;;;;;;;;;;;;;;;5051878;28;19909;-76
2023/06/10 12:01:33;;;;;;;;;;;;;;;;;;5052207;28;19913;-76
2023/06/10 12:03:58;;;;;;;;;;;;;;;;;;5051918;28;19917;-76
2023/06/10 12:06:23;;;;;;;;;;;;;;;;;;5052179;28;19923;-75
2023/06/10 12:08:49;;;;;;;;;;;;;;;;;;5051801;28;20047;-76
2023/06/10 12:11:14;;;;;;;;;;;;;;;;;;5051946;28;19917;-76
2023/06/10 12:13:39;;;;;;;;;;;;;;;;;;5059246;28;19908;-75
2023/06/10 12:16:05;;;;;;;;;;;;;;;;;;5052025;28;20023;-76
2023/06/10 12:18:30;;;;;;;;;;;;;;;;;;5050594;28;20011;-78
2023/06/10 12:20:56;;;;;;;;;;;;;;;;;;5051760;28;19919;-75
2023/06/10 12:23:21;;;;;;;;;;;;;;;;;;5051371;28;19912;-76
2023/06/10 12:25:48;;;;;;;;;;;;;;;;;;5055091;28;20348;-76
2023/06/10 12:28:13;;;;;;;;;;;;;;;;;;5055423;28;19908;-76
2023/06/10 12:30:38;;;;;;;;;;;;;;;;;;5056038;28;19913;-75
2023/06/10 12:33:03;;;;;;;;;;;;;;;;;;5055577;28;20462;-76
2023/06/10 12:35:29;;;;;;;;;;;;;;;;;;5055413;28;19962;-76
2023/06/10 12:37:55;;;;;;;;;;;;;;;;;;5053612;28;19955;-76
2023/06/10 12:40:20;;;;;;;;;;;;;;;;;;5054914;28;19913;-76
2023/06/10 12:42:46;;;;;;;;;;;;;;;;;;5056122;28;19916;-76
2023/06/10 12:45:12;;;;;;;;;;;;;;;;;;5055583;28;20336;-75
2023/06/10 12:47:41;;;;;;;;;;;;;;;;;;5054892;28;19999;-75
2023/06/10 12:50:06;;;;;;;;;;;;;;;;;;5055265;28;20375;-76
2023/06/10 12:52:32;;;;;;;;;;;;;;;;;;5054771;28;19915;-75
2023/06/10 12:54:58;;;;;;;;;;;;;;;;;;5070559;28;19963;-75
2023/06/10 12:57:23;;;;;;;;;;;;;;;;;;5055338;28;20279;-76
2023/06/10 12:59:52;;;;;;;;;;;;;;;;;;5055236;28;20398;-75
2023/06/10 13:02:17;;;;;;;;;;;;;;;;;;5055718;28;20430;-75
2023/06/10 13:04:43;;;;;;;;;;;;;;;;;;5054978;28;19917;-75
2023/06/10 13:07:10;;;;;;;;;;;;;;;;;;5054305;28;19913;-75
2023/06/10 13:09:35;;;;;;;;;;;;;;;;;;5054897;28;20379;-76
2023/06/10 13:12:01;;;;;;;;;;;;;;;;;;5056271;28;20010;-77
2023/06/10 13:14:26;;;;;;;;;;;;;;;;;;5053985;28;19978;-76
2023/06/10 13:16:51;;;;;;;;;;;;;;;;;;5055207;28;19912;-76
2023/06/10 13:19:17;;;;;;;;;;;;;;;;;;5054686;28;20497;-76
2023/06/10 13:21:42;;;;;;;;;;;;;;;;;;5055419;28;19909;-76
2023/06/10 13:24:07;;;;;;;;;;;;;;;;;;5066144;28;19958;-76
2023/06/10 13:26:33;;;;;;;;;;;;;;;;;;5054336;28;19913;-76
2023/06/10 13:28:58;;;;;;;;;;;;;;;;;;5054550;28;19912;-76
2023/06/10 13:31:23;;;;;;;;;;;;;;;;;;5054244;28;19909;-75
2023/06/10 13:33:49;;;;;;;;;;;;;;;;;;5054130;28;19999;-76
2023/06/10 13:36:14;;;;;;;;;;;;;;;;;;5053799;28;19913;-76
2023/06/10 13:38:39;;;;;;;;;;;;;;;;;;5054571;28;19966;-75
2023/06/10 13:41:05;;;;;;;;;;;;;;;;;;5053833;28;20296;-76
2023/06/10 13:43:31;;;;;;;;;;;;;;;;;;5054282;28;19923;-76
2023/06/10 13:45:56;;;;;;;;;;;;;;;;;;5053072;28;19916;-76
2023/06/10 13:48:21;;;;;;;;;;;;;;;;;;5054211;28;19913;-76
2023/06/10 13:50:46;;;;;;;;;;;;;;;;;;5053687;28;19913;-76
2023/06/10 13:53:12;;;;;;;;;;;;;;;;;;5054165;28;19912;-76
2023/06/10 13:55:37;;;;;;;;;;;;;;;;;;5054089;28;20264;-76
2023/06/10 13:58:02;;;;;;;;;;;;;;;;;;5054127;28;19929;-76
2023/06/10 14:00:28;;;;;;;;;;;;;;;;;;5053693;28;20358;-76
2023/06/10 14:02:53;;;;;;;;;;;;;;;;;;5068862;28;19912;-76
2023/06/10 14:05:19;;;;;;;;;;;;;;;;;;5053428;28;19960;-76
2023/06/10 14:07:45;;;;;;;;;;;;;;;;;;5065571;28;20327;-76
2023/06/10 14:10:10;;;;;;;;;;;;;;;;;;5052593;28;19908;-76
2023/06/10 14:12:36;;;;;;;;;;;;;;;;;;5053649;28;20319;-76
2023/06/10 14:15:01;;;;;;;;;;;;;;;;;;5053582;28;19935;-76
2023/06/10 14:17:26;;;;;;;;;;;;;;;;;;5052683;28;20012;-76
2023/06/10 14:19:52;;;;;;;;;;;;;;;;;;5053482;28;20012;-76
2023/06/10 14:22:17;;;;;;;;;;;;;;;;;;5053694;28;19920;-75
2023/06/10 14:24:42;;;;;;;;;;;;;;;;;;5053440;28;19912;-76
2023/06/10 14:27:07;;;;;;;;;;;;;;;;;;5068540;28;19913;-75
2023/06/10 14:29:33;;;;;;;;;;;;;;;;;;5052286;28;19908;-76
2023/06/10 14:31:58;;;;;;;;;;;;;;;;;;5054098;28;19998;-76
2023/06/10 14:34:28;;;;;;;;;;;;;;;;;;5068558;28;19909;-76
2023/06/10 14:36:53;;;;;;;;;;;;;;;;;;5049534;28;20330;-75
2023/06/10 14:39:19;;;;;;;;;;;;;;;;;;5052809;28;19909;-75
2023/06/10 14:41:44;;;;;;;;;;;;;;;;;;5068272;28;19940;-75
2023/06/10 14:44:09;;;;;;;;;;;;;;;;;;5053170;28;19959;-76
2023/06/10 14:46:35;;;;;;;;;;;;;;;;;;5052120;28;19916;-76
2023/06/10 14:49:02;;;;;;;;;;;;;;;;;;5052826;28;19931;-76
2023/06/10 14:51:27;;;;;;;;;;;;;;;;;;5052079;28;20363;-76
2023/06/10 14:53:52;;;;;;;;;;;;;;;;;;5053174;28;19962;-76
2023/06/10 14:56:18;;;;;;;;;;;;;;;;;;5046687;28;19913;-76
2023/06/10 14:58:43;;;;;;;;;;;;;;;;;;5053587;28;19908;-76
2023/06/10 15:01:08;;;;;;;;;;;;;;;;;;5052728;28;19981;-76
2023/06/10 15:03:34;;;;;;;;;;;;;;;;;;5052626;28;19919;-77
2023/06/10 15:06:00;;;;;;;;;;;;;;;;;;5052390;28;19912;-77
2023/06/10 15:08:26;;;;;;;;;;;;;;;;;;5052748;28;19912;-77
2023/06/10 15:10:51;;;;;;;;;;;;;;;;;;5052141;28;19962;-76
2023/06/10 15:13:16;;;;;;;;;;;;;;;;;;5057344;28;19909;-78
2023/06/10 15:15:42;;;;;;;;;;;;;;;;;;5051260;28;20268;-78
2023/06/10 15:18:07;;;;;;;;;;;;;;;;;;5051499;28;19931;-77
2023/06/10 15:20:32;;;;;;;;;;;;;;;;;;5052319;28;19912;-77
2023/06/10 15:22:58;;;;;;;;;;;;;;;;;;5052643;28;19954;-77
2023/06/10 15:25:23;;;;;;;;;;;;;;;;;;5052317;28;19917;-77
2023/06/10 15:27:48;;;;;;;;;;;;;;;;;;5052282;28;19915;-78
2023/06/10 15:30:14;;;;;;;;;;;;;;;;;;5051071;28;19912;-77
2023/06/10 15:32:39;;;;;;;;;;;;;;;;;;5052335;28;19909;-76
2023/06/10 15:35:05;;;;;;;;;;;;;;;;;;5050835;28;19917;-76
2023/06/10 15:37:30;;;;;;;;;;;;;;;;;;5051396;28;19959;-77
2023/06/10 15:39:55;;;;;;;;;;;;;;;;;;5051966;28;19920;-76
2023/06/10 15:42:21;;;;;;;;;;;;;;;;;;5052275;28;19916;-76
2023/06/10 15:44:47;;;;;;;;;;;;;;;;;;5051894;28;20019;-76
2023/06/10 15:47:12;;;;;;;;;;;;;;;;;;5067057;28;19920;-76
2023/06/10 15:49:37;;;;;;;;;;;;;;;;;;5051747;28;20387;-76
2023/06/10 15:52:02;;;;;;;;;;;;;;;;;;5052638;28;19909;-76
2023/06/10 15:54:28;;;;;;;;;;;;;;;;;;5052343;28;20380;-77
2023/06/10 15:56:53;;;;;;;;;;;;;;;;;;5068648;28;19954;-78
2023/06/10 15:59:19;;;;;;;;;;;;;;;;;;5070691;28;20306;-75
2023/06/10 16:01:44;;;;;;;;;;;;;;;;;;5056301;28;20455;-76
2023/06/10 16:04:09;;;;;;;;;;;;;;;;;;5055776;28;19992;-76
2023/06/10 16:06:36;;;;;;;;;;;;;;;;;;5056238;28;19917;-76
2023/06/10 16:09:01;;;;;;;;;;;;;;;;;;5056322;28;20014;-77
2023/06/10 16:11:27;;;;;;;;;;;;;;;;;;5056477;28;20341;-77
2023/06/10 16:13:52;;;;;;;;;;;;;;;;;;5055339;28;20415;-76
2023/06/10 16:16:17;;;;;;;;;;;;;;;;;;5055725;28;20046;-75
2023/06/10 16:18:43;;;;;;;;;;;;;;;;;;5053964;28;20303;-76
2023/06/10 16:21:08;;;;;;;;;;;;;;;;;;5054855;28;19932;-76
2023/06/10 16:23:33;;;;;;;;;;;;;;;;;;5055446;28;19923;-77
2023/06/10 16:25:59;;;;;;;;;;;;;;;;;;5055276;28;19908;-78
2023/06/10 16:28:24;;;;;;;;;;;;;;;;;;5055633;28;19916;-76
2023/06/10 16:30:50;;;;;;;;;;;;;;;;;;5055408;28;19908;-78
2023/06/10 16:33:16;;;;;;;;;;;;;;;;;;5054388;28;20003;-77
2023/06/10 16:35:41;;;;;;;;;;;;;;;;;;5055210;28;19908;-78